Time;durP1;ratioP1;P1;durP2;ratioP2;P2;SDS_P1;SDS_P2;PMS_P1;PMS_P2;Temp;Humidity;BMP_temperature;BMP_pressure;BME280_temperature;BME280_humidity;BME280_pressure;Samples;Min_cycle;Max_cycle;Signal;HPM_P1;HPM_P2
2022/03/10 00:01:09;;;;;;;15.43;8.48;;;;;;;;;;8184040;28;20282;-59
2022/03/10 00:05:15;;;;;;;11.15;7.43;;;;;;;;;;8184063;28;20560;-58
2022/03/10 00:09:16;;;;;;;13.85;7.80;;;;;;;;;;8182825;28;20409;-59
2022/03/10 00:13:16;;;;;;;14.27;8.07;;;;;;;;;;8183369;28;20027;-59
2022/03/10 00:17:17;;;;;;;11.95;8.00;;;;;;;;;;8185449;28;20035;-59
2022/03/10 00:21:17;;;;;;;11.88;7.22;;;;;;;;;;8184017;28;21259;-59
2022/03/10 00:25:18;;;;;;;11.85;7.28;;;;;;;;;;8183392;28;20041;-59
2022/03/10 00:29:18;;;;;;;11.70;7.43;;;;;;;;;;8184315;28;20137;-59
2022/03/10 00:33:18;;;;;;;12.13;7.20;;;;;;;;;;8183660;28;20049;-59
2022/03/10 00:37:19;;;;;;;11.32;7.45;;;;;;;;;;8182859;28;20023;-59
2022/03/10 00:41:19;;;;;;;15.70;8.15;;;;;;;;;;8181129;28;20035;-58
2022/03/10 00:45:20;;;;;;;13.02;7.85;;;;;;;;;;8182890;28;20030;-59
2022/03/10 00:49:20;;;;;;;14.52;7.90;;;;;;;;;;8181072;28;20040;-59
2022/03/10 00:53:20;;;;;;;10.05;7.05;;;;;;;;;;8185173;28;20038;-58
2022/03/10 00:57:20;;;;;;;12.02;7.75;;;;;;;;;;8187783;28;20114;-58
2022/03/10 01:01:21;;;;;;;14.20;7.90;;;;;;;;;;8187430;28;20050;-58
2022/03/10 01:05:21;;;;;;;10.40;7.00;;;;;;;;;;8186279;28;20050;-58
2022/03/10 01:09:21;;;;;;;14.43;8.27;;;;;;;;;;8187948;28;20039;-58
2022/03/10 01:13:21;;;;;;;17.63;9.40;;;;;;;;;;8187967;28;20284;-59
2022/03/10 01:17:21;;;;;;;15.98;8.90;;;;;;;;;;8184100;28;20101;-59
2022/03/10 01:21:22;;;;;;;15.70;8.88;;;;;;;;;;8186329;28;20039;-58
2022/03/10 01:25:22;;;;;;;16.48;8.05;;;;;;;;;;8184504;28;20062;-59
2022/03/10 01:29:22;;;;;;;14.98;9.20;;;;;;;;;;8188471;28;20054;-58
2022/03/10 01:33:22;;;;;;;16.88;9.13;;;;;;;;;;8187375;28;20078;-59
2022/03/10 01:37:22;;;;;;;19.23;9.23;;;;;;;;;;8185638;28;20046;-59
2022/03/10 01:41:23;;;;;;;13.73;8.55;;;;;;;;;;8185189;28;20933;-59
2022/03/10 01:45:23;;;;;;;13.90;8.57;;;;;;;;;;8187993;28;20054;-59
2022/03/10 01:49:23;;;;;;;14.80;8.85;;;;;;;;;;8187441;28;20027;-59
2022/03/10 01:53:23;;;;;;;13.63;8.55;;;;;;;;;;8187201;28;20027;-59
2022/03/10 01:57:24;;;;;;;14.35;8.70;;;;;;;;;;8186646;28;20097;-59
2022/03/10 02:01:25;;;;;;;15.23;9.23;;;;;;;;;;8185366;28;20043;-59
2022/03/10 02:05:25;;;;;;;14.38;8.57;;;;;;;;;;8187029;28;20053;-58
2022/03/10 02:13:45;;;;;;;15.88;8.32;;;;;;;;;;8187056;28;20159;-59
2022/03/10 02:17:45;;;;;;;14.80;8.40;;;;;;;;;;8186741;28;20050;-59
2022/03/10 02:21:45;;;;;;;18.48;8.98;;;;;;;;;;8183622;28;20033;-59
2022/03/10 02:25:46;;;;;;;18.55;9.52;;;;;;;;;;8186860;28;20027;-59
2022/03/10 02:29:48;;;;;;;16.75;8.85;;;;;;;;;;8185608;28;20023;-59
2022/03/10 02:33:48;;;;;;;18.77;10.20;;;;;;;;;;8186136;28;20650;-59
2022/03/10 02:37:48;;;;;;;17.40;10.20;;;;;;;;;;8186376;28;20084;-59
2022/03/10 02:41:48;;;;;;;13.60;8.85;;;;;;;;;;8184969;28;20117;-59
2022/03/10 02:45:48;;;;;;;14.95;8.98;;;;;;;;;;8185738;28;20313;-58
2022/03/10 02:49:49;;;;;;;15.95;9.32;;;;;;;;;;8183287;28;20038;-59
2022/03/10 02:53:49;;;;;;;17.52;8.27;;;;;;;;;;8186366;28;20125;-59
2022/03/10 02:57:49;;;;;;;17.33;8.60;;;;;;;;;;8187236;28;20033;-59
2022/03/10 03:01:50;;;;;;;14.07;8.48;;;;;;;;;;8182485;28;20043;-59
2022/03/10 03:05:51;;;;;;;16.23;9.25;;;;;;;;;;8184716;28;20753;-59
2022/03/10 03:09:51;;;;;;;13.30;9.07;;;;;;;;;;8181837;28;20015;-59
2022/03/10 03:13:51;;;;;;;12.10;8.40;;;;;;;;;;8184395;28;20471;-59
2022/03/10 03:17:51;;;;;;;15.18;8.88;;;;;;;;;;8182626;28;20039;-59
2022/03/10 03:21:52;;;;;;;20.88;10.02;;;;;;;;;;8181936;28;20032;-59
2022/03/10 03:25:52;;;;;;;17.15;8.95;;;;;;;;;;8181977;28;20454;-59
2022/03/10 03:29:52;;;;;;;20.25;10.25;;;;;;;;;;8184308;28;20030;-57
2022/03/10 03:33:52;;;;;;;18.02;10.43;;;;;;;;;;8183614;28;20043;-59
2022/03/10 03:37:52;;;;;;;21.48;10.32;;;;;;;;;;8183400;28;20031;-59
2022/03/10 03:41:53;;;;;;;17.15;9.52;;;;;;;;;;8185438;28;20854;-59
2022/03/10 03:45:55;;;;;;;17.40;9.93;;;;;;;;;;8183903;28;20693;-59
2022/03/10 03:49:56;;;;;;;16.58;8.98;;;;;;;;;;8183985;28;20069;-59
2022/03/10 03:53:56;;;;;;;16.15;8.38;;;;;;;;;;8182591;28;20059;-59
2022/03/10 03:57:56;;;;;;;14.40;8.82;;;;;;;;;;8182291;28;20042;-59
2022/03/10 04:01:57;;;;;;;15.80;8.70;;;;;;;;;;8180552;28;20043;-59
2022/03/10 04:05:58;;;;;;;13.32;8.45;;;;;;;;;;8182937;28;20704;-59
2022/03/10 04:09:58;;;;;;;14.65;8.57;;;;;;;;;;8183785;28;20437;-59
2022/03/10 04:13:58;;;;;;;15.75;9.27;;;;;;;;;;8183883;28;20030;-59
2022/03/10 04:17:59;;;;;;;18.17;8.55;;;;;;;;;;8182831;28;20039;-59
2022/03/10 04:21:59;;;;;;;14.75;8.80;;;;;;;;;;8181071;28;20081;-59
2022/03/10 04:26:00;;;;;;;16.02;8.07;;;;;;;;;;8183631;28;20035;-59
2022/03/10 04:30:00;;;;;;;14.90;8.77;;;;;;;;;;8183503;28;20019;-59
2022/03/10 04:34:00;;;;;;;13.60;8.20;;;;;;;;;;8187973;28;20125;-59
2022/03/10 04:38:01;;;;;;;14.48;8.60;;;;;;;;;;8190302;28;20270;-59
2022/03/10 04:42:01;;;;;;;15.30;8.18;;;;;;;;;;8188839;28;20880;-59
2022/03/10 04:46:03;;;;;;;14.45;9.00;;;;;;;;;;8188648;28;20035;-59
2022/03/10 04:50:04;;;;;;;16.33;8.30;;;;;;;;;;8189443;28;20026;-59
2022/03/10 04:54:04;;;;;;;17.33;9.05;;;;;;;;;;8187168;28;20791;-59
2022/03/10 04:58:05;;;;;;;14.43;8.33;;;;;;;;;;8189819;28;20537;-59
2022/03/10 05:02:05;;;;;;;12.35;8.07;;;;;;;;;;8185815;28;20902;-59
2022/03/10 05:06:06;;;;;;;15.05;8.55;;;;;;;;;;8191037;28;20018;-59
2022/03/10 05:10:06;;;;;;;15.10;8.18;;;;;;;;;;8187007;28;20019;-60
2022/03/10 05:14:07;;;;;;;13.15;8.25;;;;;;;;;;8188145;28;20188;-59
2022/03/10 05:18:08;;;;;;;17.25;8.50;;;;;;;;;;8186867;28;20046;-59
2022/03/10 05:22:08;;;;;;;13.00;8.52;;;;;;;;;;8188662;28;20035;-59
2022/03/10 05:26:08;;;;;;;13.80;8.32;;;;;;;;;;8186831;28;20158;-59
2022/03/10 05:30:09;;;;;;;15.07;8.80;;;;;;;;;;8187504;28;20059;-59
2022/03/10 05:34:09;;;;;;;13.13;7.68;;;;;;;;;;8187625;28;20061;-59
2022/03/10 05:38:09;;;;;;;14.73;7.50;;;;;;;;;;8185236;28;20034;-59
2022/03/10 05:42:10;;;;;;;14.50;9.10;;;;;;;;;;8184806;28;20076;-59
2022/03/10 05:46:10;;;;;;;14.55;8.93;;;;;;;;;;8186525;28;20036;-59
2022/03/10 05:50:10;;;;;;;16.48;9.65;;;;;;;;;;8181621;28;20031;-60
2022/03/10 05:54:10;;;;;;;17.25;9.85;;;;;;;;;;8186754;28;20492;-59
2022/03/10 05:58:11;;;;;;;18.95;10.43;;;;;;;;;;8186300;28;20570;-60
2022/03/10 06:02:11;;;;;;;22.27;11.90;;;;;;;;;;8185950;28;20049;-59
2022/03/10 06:06:12;;;;;;;21.23;12.07;;;;;;;;;;8186415;28;20145;-59
2022/03/10 06:10:12;;;;;;;21.33;11.52;;;;;;;;;;8184805;28;20275;-59
2022/03/10 06:14:12;;;;;;;25.40;11.68;;;;;;;;;;8186819;28;20612;-59
2022/03/10 06:18:13;;;;;;;19.05;10.85;;;;;;;;;;8184511;28;20038;-59
2022/03/10 06:22:17;;;;;;;16.50;10.10;;;;;;;;;;8184771;28;20298;-59
2022/03/10 06:26:17;;;;;;;18.15;9.07;;;;;;;;;;8182857;28;20902;-59
2022/03/10 06:30:17;;;;;;;15.25;9.48;;;;;;;;;;8184057;28;20031;-59
2022/03/10 06:34:18;;;;;;;30.48;15.35;;;;;;;;;;8186056;28;20150;-59
2022/03/10 06:38:18;;;;;;;31.08;14.50;;;;;;;;;;8186035;28;20137;-59
2022/03/10 06:42:18;;;;;;;31.75;15.75;;;;;;;;;;8185585;28;20026;-59
2022/03/10 06:46:18;;;;;;;22.80;11.35;;;;;;;;;;8184437;28;20035;-59
2022/03/10 06:50:19;;;;;;;20.63;11.80;;;;;;;;;;8183284;28;20518;-60
2022/03/10 06:54:19;;;;;;;20.58;11.68;;;;;;;;;;8184026;28;20875;-60
2022/03/10 06:58:19;;;;;;;18.42;11.05;;;;;;;;;;8187028;28;20590;-60
2022/03/10 07:02:20;;;;;;;27.45;11.95;;;;;;;;;;8182053;28;20624;-61
2022/03/10 07:06:20;;;;;;;25.50;12.27;;;;;;;;;;8186471;28;20082;-61
2022/03/10 07:10:21;;;;;;;18.08;11.80;;;;;;;;;;8183915;28;20110;-61
2022/03/10 07:14:22;;;;;;;18.67;10.90;;;;;;;;;;8185066;28;20034;-61
2022/03/10 07:18:22;;;;;;;15.47;10.20;;;;;;;;;;8182623;28;20491;-61
2022/03/10 07:22:23;;;;;;;14.70;10.18;;;;;;;;;;8183727;28;20034;-61
2022/03/10 07:26:23;;;;;;;14.60;10.10;;;;;;;;;;8183850;28;20482;-61
2022/03/10 07:30:23;;;;;;;14.68;10.77;;;;;;;;;;8181199;28;20039;-61
2022/03/10 07:34:23;;;;;;;16.17;10.50;;;;;;;;;;8182882;28;20026;-61
2022/03/10 07:38:24;;;;;;;16.77;11.10;;;;;;;;;;8183027;28;20144;-62
2022/03/10 07:42:24;;;;;;;18.07;11.70;;;;;;;;;;8182752;28;20070;-61
2022/03/10 07:46:24;;;;;;;22.70;11.80;;;;;;;;;;8182226;28;20117;-62
2022/03/10 07:50:24;;;;;;;14.45;11.38;;;;;;;;;;8184205;28;20169;-62
2022/03/10 07:54:25;;;;;;;15.02;10.50;;;;;;;;;;8184404;28;20039;-62
2022/03/10 07:58:29;;;;;;;16.10;11.05;;;;;;;;;;8184108;28;20043;-62
2022/03/10 08:02:29;;;;;;;15.05;11.23;;;;;;;;;;8180753;28;20035;-62
2022/03/10 08:06:29;;;;;;;17.05;11.52;;;;;;;;;;8181327;28;20056;-62
2022/03/10 08:10:30;;;;;;;14.88;10.20;;;;;;;;;;8182888;28;20035;-62
2022/03/10 08:14:30;;;;;;;13.82;10.38;;;;;;;;;;8183025;28;20961;-62
2022/03/10 08:18:30;;;;;;;16.35;9.98;;;;;;;;;;8182778;28;20045;-62
2022/03/10 08:22:30;;;;;;;15.07;10.55;;;;;;;;;;8181673;28;20595;-61
2022/03/10 08:26:31;;;;;;;12.88;9.15;;;;;;;;;;8181481;28;20493;-62
2022/03/10 08:30:31;;;;;;;15.63;11.00;;;;;;;;;;8183238;28;20035;-62
2022/03/10 08:34:31;;;;;;;12.90;9.97;;;;;;;;;;8181520;28;20318;-62
2022/03/10 08:38:32;;;;;;;11.52;10.00;;;;;;;;;;8183958;28;20983;-61
2022/03/10 08:42:32;;;;;;;12.10;9.95;;;;;;;;;;8181696;28;20027;-62
2022/03/10 08:46:32;;;;;;;19.05;9.85;;;;;;;;;;8181184;28;20043;-61
2022/03/10 08:50:33;;;;;;;12.20;10.30;;;;;;;;;;8181894;28;20027;-62
2022/03/10 08:54:33;;;;;;;12.17;9.10;;;;;;;;;;8181459;28;20754;-61
2022/03/10 08:58:33;;;;;;;12.80;9.73;;;;;;;;;;8182193;28;20282;-61
2022/03/10 09:02:33;;;;;;;12.82;9.98;;;;;;;;;;8180214;28;20034;-61
2022/03/10 09:06:33;;;;;;;12.30;9.02;;;;;;;;;;8182534;28;20034;-61
2022/03/10 09:10:34;;;;;;;17.47;9.70;;;;;;;;;;8180722;28;20032;-61
2022/03/10 09:14:34;;;;;;;12.93;9.27;;;;;;;;;;8183604;28;20055;-61
2022/03/10 09:18:34;;;;;;;12.40;9.70;;;;;;;;;;8182596;28;20081;-61
2022/03/10 09:22:34;;;;;;;13.35;9.18;;;;;;;;;;8186846;28;20033;-60
2022/03/10 09:26:35;;;;;;;16.08;9.90;;;;;;;;;;8188731;28;20054;-60
2022/03/10 09:30:36;;;;;;;14.75;10.45;;;;;;;;;;8184845;28;20042;-60
2022/03/10 09:34:36;;;;;;;12.20;8.70;;;;;;;;;;8187686;28;20054;-60
2022/03/10 09:38:36;;;;;;;13.50;8.60;;;;;;;;;;8185240;28;20971;-60
2022/03/10 09:42:37;;;;;;;15.97;8.60;;;;;;;;;;8186256;28;20381;-61
2022/03/10 09:46:37;;;;;;;17.50;8.82;;;;;;;;;;8186965;28;20397;-60
2022/03/10 09:50:37;;;;;;;13.95;9.20;;;;;;;;;;8187164;28;20026;-60
2022/03/10 09:54:38;;;;;;;14.05;9.18;;;;;;;;;;8186613;28;20126;-60
2022/03/10 09:58:38;;;;;;;14.03;8.93;;;;;;;;;;8189062;28;20455;-60
2022/03/10 10:02:40;;;;;;;11.27;7.63;;;;;;;;;;8186852;28;20293;-60
2022/03/10 10:06:59;;;;;;;11.23;7.88;;;;;;;;;;8187134;28;20038;-60
2022/03/10 10:11:02;;;;;;;14.63;7.53;;;;;;;;;;8186009;28;20061;-60
2022/03/10 10:15:08;;;;;;;12.75;7.70;;;;;;;;;;8187539;28;20022;-61
2022/03/10 10:19:16;;;;;;;11.80;7.03;;;;;;;;;;8185774;28;20043;-60
2022/03/10 10:23:22;;;;;;;13.27;7.78;;;;;;;;;;8186617;28;20034;-60
2022/03/10 10:27:24;;;;;;;14.50;7.63;;;;;;;;;;8187074;28;20374;-60
2022/03/10 10:31:25;;;;;;;11.82;7.90;;;;;;;;;;8185876;28;20636;-60
2022/03/10 10:35:25;;;;;;;14.20;7.78;;;;;;;;;;8183024;28;20042;-60
2022/03/10 10:39:25;;;;;;;14.02;9.25;;;;;;;;;;8186776;28;21122;-60
2022/03/10 10:43:39;;;;;;;11.63;7.88;;;;;;;;;;8185927;28;20098;-60
2022/03/10 10:47:56;;;;;;;11.88;8.27;;;;;;;;;;8180576;28;20378;-60
2022/03/10 10:51:58;;;;;;;11.30;7.72;;;;;;;;;;8181502;28;20023;-60
2022/03/10 10:55:59;;;;;;;11.40;7.45;;;;;;;;;;8181836;28;20364;-60
2022/03/10 11:00:05;;;;;;;10.73;7.03;;;;;;;;;;8180002;28;20019;-60
2022/03/10 11:04:05;;;;;;;11.18;7.25;;;;;;;;;;8181046;28;20177;-60
2022/03/10 11:08:05;;;;;;;12.03;7.23;;;;;;;;;;8180181;28;20097;-60
2022/03/10 11:12:08;;;;;;;11.07;7.50;;;;;;;;;;8179689;28;20031;-60
2022/03/10 11:16:08;;;;;;;14.23;7.13;;;;;;;;;;8181829;28;20043;-60
2022/03/10 11:20:09;;;;;;;12.55;8.18;;;;;;;;;;8180419;28;20117;-60
2022/03/10 11:24:26;;;;;;;13.55;7.70;;;;;;;;;;8179454;28;20034;-60
2022/03/10 11:28:27;;;;;;;11.88;6.82;;;;;;;;;;8181173;28;20129;-60
2022/03/10 11:32:28;;;;;;;8.63;6.20;;;;;;;;;;8177475;28;20661;-60
2022/03/10 11:36:30;;;;;;;8.55;6.13;;;;;;;;;;8178789;28;20027;-60
2022/03/10 11:40:41;;;;;;;12.57;6.18;;;;;;;;;;8179183;28;20039;-60
2022/03/10 11:44:41;;;;;;;7.03;5.13;;;;;;;;;;8181510;28;20054;-60
2022/03/10 11:48:42;;;;;;;7.50;5.60;;;;;;;;;;8180002;28;20126;-60
2022/03/10 11:52:42;;;;;;;13.23;6.40;;;;;;;;;;8180376;28;20023;-60
2022/03/10 11:56:42;;;;;;;9.77;6.22;;;;;;;;;;8181475;28;20027;-60
2022/03/10 12:00:52;;;;;;;9.48;6.10;;;;;;;;;;8182545;28;20062;-60
2022/03/10 12:04:55;;;;;;;9.40;5.97;;;;;;;;;;8180541;28;20029;-60
2022/03/10 12:09:02;;;;;;;9.38;5.85;;;;;;;;;;8178947;28;20027;-61
2022/03/10 12:13:20;;;;;;;7.40;5.85;;;;;;;;;;8179320;28;20042;-61
2022/03/10 12:17:46;;;;;;;8.88;6.47;;;;;;;;;;8178828;28;20121;-61
2022/03/10 12:21:46;;;;;;;14.45;6.88;;;;;;;;;;8178736;28;20034;-60
2022/03/10 12:25:48;;;;;;;10.30;6.85;;;;;;;;;;8178905;28;20031;-60
2022/03/10 12:29:49;;;;;;;10.85;6.28;;;;;;;;;;8179234;28;20030;-61
2022/03/10 12:33:51;;;;;;;10.38;7.30;;;;;;;;;;8178895;28;20042;-61
2022/03/10 12:37:51;;;;;;;10.93;7.22;;;;;;;;;;8180044;28;20082;-61
2022/03/10 12:41:53;;;;;;;10.70;7.00;;;;;;;;;;8179886;28;20039;-60
2022/03/10 12:45:55;;;;;;;10.43;7.35;;;;;;;;;;8176908;28;20049;-60
2022/03/10 12:49:56;;;;;;;12.10;7.03;;;;;;;;;;8178682;28;20069;-61
2022/03/10 12:53:57;;;;;;;14.27;7.20;;;;;;;;;;8185367;28;20122;-60
2022/03/10 12:57:58;;;;;;;11.75;6.47;;;;;;;;;;8188093;28;20090;-60
2022/03/10 13:02:18;;;;;;;7.68;6.03;;;;;;;;;;8186481;28;20045;-60
2022/03/10 13:06:19;;;;;;;9.25;6.47;;;;;;;;;;8189884;28;20202;-60
2022/03/10 13:10:20;;;;;;;11.07;5.25;;;;;;;;;;8185975;28;20121;-60
2022/03/10 13:14:20;;;;;;;8.23;5.30;;;;;;;;;;8188454;28;20027;-60
2022/03/10 13:18:20;;;;;;;11.60;7.13;;;;;;;;;;8188384;28;20166;-60
2022/03/10 13:22:21;;;;;;;12.25;5.82;;;;;;;;;;8188058;28;20404;-60
2022/03/10 13:26:23;;;;;;;8.63;5.53;;;;;;;;;;8188486;28;20114;-61
2022/03/10 13:30:25;;;;;;;7.88;5.68;;;;;;;;;;8185471;28;20042;-61
2022/03/10 13:34:26;;;;;;;9.80;5.78;;;;;;;;;;8187162;28;20939;-61
2022/03/10 13:38:27;;;;;;;7.13;5.03;;;;;;;;;;8185771;28;20078;-60
2022/03/10 13:42:31;;;;;;;8.10;5.47;;;;;;;;;;8185398;28;20038;-61
2022/03/10 13:46:31;;;;;;;8.90;5.70;;;;;;;;;;8186777;28;20035;-61
2022/03/10 13:50:34;;;;;;;10.02;5.75;;;;;;;;;;8186147;28;20034;-61
2022/03/10 13:54:37;;;;;;;6.50;4.80;;;;;;;;;;8186477;28;20149;-61
2022/03/10 13:58:37;;;;;;;9.80;5.88;;;;;;;;;;8183783;28;20508;-60
2022/03/10 14:02:37;;;;;;;7.40;5.40;;;;;;;;;;8184487;28;20054;-60
2022/03/10 14:06:44;;;;;;;6.72;4.88;;;;;;;;;;8186090;28;20023;-60
2022/03/10 14:10:45;;;;;;;7.30;5.18;;;;;;;;;;8184396;28;20036;-61
2022/03/10 14:14:55;;;;;;;6.03;4.70;;;;;;;;;;8186547;28;20031;-61
2022/03/10 14:18:56;;;;;;;5.95;4.28;;;;;;;;;;8185628;28;21059;-61
2022/03/10 14:23:04;;;;;;;7.03;4.87;;;;;;;;;;8186553;28;20038;-62
2022/03/10 14:27:05;;;;;;;7.20;5.05;;;;;;;;;;8184823;28;20282;-61
2022/03/10 14:31:07;;;;;;;6.78;4.60;;;;;;;;;;8186102;28;20039;-61
2022/03/10 14:35:07;;;;;;;8.98;3.88;;;;;;;;;;8183445;28;20049;-62
2022/03/10 14:39:09;;;;;;;4.75;3.70;;;;;;;;;;8183866;28;20569;-62
2022/03/10 14:43:09;;;;;;;6.72;4.80;;;;;;;;;;8186467;28;20054;-63
2022/03/10 14:47:09;;;;;;;8.90;5.30;;;;;;;;;;8188308;28;20038;-62
2022/03/10 14:51:10;;;;;;;13.07;5.70;;;;;;;;;;8188049;28;20031;-63
2022/03/10 14:55:11;;;;;;;7.70;5.38;;;;;;;;;;8188340;28;20894;-59
2022/03/10 14:59:11;;;;;;;7.60;4.80;;;;;;;;;;8184249;28;20607;-60
2022/03/10 15:03:12;;;;;;;9.93;4.88;;;;;;;;;;8203852;28;20054;-60
2022/03/10 15:07:12;;;;;;;11.73;4.68;;;;;;;;;;8184933;28;20106;-62
2022/03/10 15:11:13;;;;;;;8.30;4.13;;;;;;;;;;8184178;28;20041;-61
2022/03/10 15:15:13;;;;;;;3.97;3.08;;;;;;;;;;8179331;28;20114;-61
2022/03/10 15:19:13;;;;;;;5.15;3.08;;;;;;;;;;8179620;28;20065;-60
2022/03/10 15:23:14;;;;;;;5.63;3.50;;;;;;;;;;8182732;28;20023;-60
2022/03/10 15:27:14;;;;;;;7.32;3.47;;;;;;;;;;8181918;28;20154;-61
2022/03/10 15:31:15;;;;;;;7.70;3.73;;;;;;;;;;8180337;28;20148;-60
2022/03/10 15:35:17;;;;;;;6.33;3.40;;;;;;;;;;8179526;28;20274;-60
2022/03/10 15:39:17;;;;;;;5.78;2.92;;;;;;;;;;8178500;28;20447;-60
2022/03/10 15:43:20;;;;;;;3.97;3.10;;;;;;;;;;8180837;28;20027;-60
2022/03/10 15:47:21;;;;;;;5.72;4.05;;;;;;;;;;8176035;28;20129;-60
2022/03/10 15:51:26;;;;;;;9.27;3.63;;;;;;;;;;8179848;28;20157;-60
2022/03/10 15:55:31;;;;;;;8.70;3.45;;;;;;;;;;8178578;28;20751;-60
2022/03/10 15:59:31;;;;;;;4.28;3.60;;;;;;;;;;8181039;28;20528;-60
2022/03/10 16:03:31;;;;;;;4.70;3.50;;;;;;;;;;8177751;28;20213;-60
2022/03/10 16:07:31;;;;;;;4.32;3.25;;;;;;;;;;8182393;28;20444;-60
2022/03/10 16:11:33;;;;;;;4.60;3.67;;;;;;;;;;8181555;28;20652;-60
2022/03/10 16:15:33;;;;;;;5.15;3.50;;;;;;;;;;8179393;28;20031;-60
2022/03/10 16:19:33;;;;;;;8.05;3.50;;;;;;;;;;8187338;28;20555;-60
2022/03/10 16:23:33;;;;;;;5.90;3.20;;;;;;;;;;8179890;28;20039;-60
2022/03/10 16:27:34;;;;;;;6.00;4.00;;;;;;;;;;8182524;28;20365;-60
2022/03/10 16:31:36;;;;;;;7.43;3.80;;;;;;;;;;8185716;28;20786;-60
2022/03/10 16:35:36;;;;;;;6.85;3.90;;;;;;;;;;8184943;28;20137;-60
2022/03/10 16:39:36;;;;;;;6.68;3.65;;;;;;;;;;8184360;28;20094;-60
2022/03/10 16:43:36;;;;;;;4.72;3.63;;;;;;;;;;8187342;28;20066;-60
2022/03/10 16:47:37;;;;;;;7.07;4.05;;;;;;;;;;8184110;28;20043;-59
2022/03/10 16:51:37;;;;;;;5.90;3.83;;;;;;;;;;8185401;28;20094;-59
2022/03/10 16:55:39;;;;;;;8.25;3.80;;;;;;;;;;8186373;28;20294;-61
2022/03/10 16:59:39;;;;;;;6.95;3.70;;;;;;;;;;8184746;28;20035;-59
2022/03/10 17:03:39;;;;;;;6.47;3.63;;;;;;;;;;8186278;28;20194;-59
2022/03/10 17:07:40;;;;;;;10.30;4.10;;;;;;;;;;8186694;28;21103;-59
2022/03/10 17:11:40;;;;;;;6.35;4.47;;;;;;;;;;8182842;28;20399;-60
2022/03/10 17:15:40;;;;;;;7.38;4.30;;;;;;;;;;8187321;28;22077;-59
2022/03/10 17:19:40;;;;;;;7.73;4.07;;;;;;;;;;8185197;28;20023;-59
2022/03/10 17:23:40;;;;;;;5.80;3.58;;;;;;;;;;8183311;28;20401;-60
2022/03/10 17:27:41;;;;;;;6.85;4.05;;;;;;;;;;8187175;28;20019;-59
2022/03/10 17:31:42;;;;;;;9.75;4.40;;;;;;;;;;8184687;28;20035;-59
2022/03/10 17:35:42;;;;;;;6.35;4.32;;;;;;;;;;8185680;28;20027;-59
2022/03/10 17:39:42;;;;;;;4.53;3.63;;;;;;;;;;8182403;28;21039;-59
2022/03/10 17:43:42;;;;;;;7.97;3.83;;;;;;;;;;8186560;28;20090;-60
2022/03/10 17:47:45;;;;;;;7.18;4.18;;;;;;;;;;8185167;28;20146;-60
2022/03/10 17:51:46;;;;;;;6.18;3.92;;;;;;;;;;8185609;28;20034;-59
2022/03/10 17:55:47;;;;;;;6.88;4.38;;;;;;;;;;8184890;28;20030;-60
2022/03/10 17:59:47;;;;;;;7.55;4.20;;;;;;;;;;8184383;28;20030;-59
2022/03/10 18:03:47;;;;;;;9.38;4.75;;;;;;;;;;8184174;28;20051;-59
2022/03/10 18:07:47;;;;;;;7.35;4.95;;;;;;;;;;8184485;28;20039;-59
2022/03/10 18:11:48;;;;;;;7.85;5.25;;;;;;;;;;8184929;28;20035;-59
2022/03/10 18:15:48;;;;;;;8.32;5.53;;;;;;;;;;8182315;28;20045;-59
2022/03/10 18:19:49;;;;;;;16.55;5.60;;;;;;;;;;8183707;28;20023;-59
2022/03/10 18:23:49;;;;;;;9.03;5.17;;;;;;;;;;8184349;28;20088;-59
2022/03/10 18:27:49;;;;;;;9.10;4.93;;;;;;;;;;8182917;28;20023;-59
2022/03/10 18:31:49;;;;;;;8.05;4.82;;;;;;;;;;8180942;28;20040;-59
2022/03/10 18:35:49;;;;;;;6.50;5.00;;;;;;;;;;8182631;28;20442;-60
2022/03/10 18:39:50;;;;;;;8.53;5.40;;;;;;;;;;8181943;28;20035;-59
2022/03/10 18:43:50;;;;;;;8.48;5.72;;;;;;;;;;8183561;28;20121;-59
2022/03/10 18:47:50;;;;;;;10.13;5.80;;;;;;;;;;8182797;28;20054;-59
2022/03/10 18:51:50;;;;;;;11.55;6.10;;;;;;;;;;8180376;28;20690;-60
2022/03/10 18:55:51;;;;;;;8.65;5.60;;;;;;;;;;8181518;28;20026;-59
2022/03/10 18:59:51;;;;;;;10.93;5.70;;;;;;;;;;8180925;28;20026;-59
2022/03/10 19:03:51;;;;;;;12.00;5.82;;;;;;;;;;8181199;28;21024;-58
2022/03/10 19:07:51;;;;;;;15.10;5.68;;;;;;;;;;8180400;28;20699;-59
2022/03/10 19:11:53;;;;;;;11.05;5.35;;;;;;;;;;8179463;28;20482;-59
2022/03/10 19:15:54;;;;;;;9.00;5.63;;;;;;;;;;8180072;28;20098;-60
2022/03/10 19:19:55;;;;;;;7.95;5.60;;;;;;;;;;8178927;28;20372;-59
2022/03/10 19:23:55;;;;;;;9.30;6.40;;;;;;;;;;8179022;28;20030;-61
2022/03/10 19:27:55;;;;;;;10.63;5.65;;;;;;;;;;8181507;28;20138;-59
2022/03/10 19:31:55;;;;;;;16.13;6.00;;;;;;;;;;8174956;28;20485;-59
2022/03/10 19:35:55;;;;;;;11.20;6.35;;;;;;;;;;8179001;28;20089;-59
2022/03/10 19:39:56;;;;;;;10.38;5.93;;;;;;;;;;8177877;28;20093;-59
2022/03/10 19:43:56;;;;;;;12.45;6.13;;;;;;;;;;8180793;28;20035;-59
2022/03/10 19:47:57;;;;;;;12.32;6.25;;;;;;;;;;8179260;28;20720;-59
2022/03/10 19:51:58;;;;;;;9.23;6.18;;;;;;;;;;8179905;28;20532;-59
2022/03/10 19:55:58;;;;;;;10.07;5.95;;;;;;;;;;8179396;28;20655;-60
2022/03/10 19:59:59;;;;;;;10.05;6.38;;;;;;;;;;8179373;28;20278;-60
2022/03/10 20:03:59;;;;;;;9.27;5.15;;;;;;;;;;8176092;28;20039;-59
2022/03/10 20:07:59;;;;;;;10.35;6.18;;;;;;;;;;8178859;28;20193;-59
2022/03/10 20:11:59;;;;;;;9.98;6.25;;;;;;;;;;8179628;28;20171;-59
2022/03/10 20:16:00;;;;;;;10.73;5.65;;;;;;;;;;8180194;28;20043;-59
2022/03/10 20:20:00;;;;;;;12.50;6.35;;;;;;;;;;8178204;28;20026;-59
2022/03/10 20:24:01;;;;;;;10.70;6.37;;;;;;;;;;8179284;28;21053;-59
2022/03/10 20:28:01;;;;;;;12.03;6.57;;;;;;;;;;8175832;28;20278;-58
2022/03/10 20:32:08;;;;;;;12.45;6.78;;;;;;;;;;8176626;28;20285;-59
2022/03/10 20:36:08;;;;;;;14.65;7.25;;;;;;;;;;8180572;28;20618;-59
2022/03/10 20:40:11;;;;;;;11.65;6.85;;;;;;;;;;8177171;28;20768;-59
2022/03/10 20:44:11;;;;;;;11.55;7.07;;;;;;;;;;8177790;28;20495;-59
2022/03/10 20:48:13;;;;;;;9.20;6.43;;;;;;;;;;8177054;28;20035;-59
2022/03/10 20:52:14;;;;;;;11.07;6.78;;;;;;;;;;8175132;28;20030;-59
2022/03/10 20:56:14;;;;;;;12.10;6.83;;;;;;;;;;8181522;28;20028;-59
2022/03/10 21:00:15;;;;;;;9.88;6.03;;;;;;;;;;8178586;28;20270;-60
2022/03/10 21:04:15;;;;;;;11.50;6.95;;;;;;;;;;8180597;28;20038;-59
2022/03/10 21:08:15;;;;;;;10.00;6.82;;;;;;;;;;8176878;28;20019;-59
2022/03/10 21:12:15;;;;;;;11.63;7.28;;;;;;;;;;8178903;28;20875;-60
2022/03/10 21:16:16;;;;;;;14.75;7.22;;;;;;;;;;8180598;28;20067;-59
2022/03/10 21:20:16;;;;;;;11.77;7.05;;;;;;;;;;8183386;28;20026;-58
2022/03/10 21:24:18;;;;;;;10.63;6.78;;;;;;;;;;8181985;28;20050;-59
2022/03/10 21:28:19;;;;;;;12.82;7.80;;;;;;;;;;8185211;28;20776;-59
2022/03/10 21:32:19;;;;;;;11.50;6.95;;;;;;;;;;8183654;28;20065;-60
2022/03/10 21:36:19;;;;;;;15.35;7.78;;;;;;;;;;8182414;28;20122;-59
2022/03/10 21:40:20;;;;;;;15.85;9.05;;;;;;;;;;8187514;28;20039;-59
2022/03/10 21:44:20;;;;;;;12.50;7.43;;;;;;;;;;8186240;28;20038;-59
2022/03/10 21:48:20;;;;;;;12.05;7.32;;;;;;;;;;8187154;28;20044;-59
2022/03/10 21:52:21;;;;;;;10.43;6.78;;;;;;;;;;8185857;28;21073;-60
2022/03/10 21:56:21;;;;;;;12.23;6.77;;;;;;;;;;8184144;28;20042;-60
2022/03/10 22:00:21;;;;;;;10.97;6.47;;;;;;;;;;8182927;28;20295;-59
2022/03/10 22:04:21;;;;;;;14.43;7.07;;;;;;;;;;8185525;28;20639;-59
2022/03/10 22:08:22;;;;;;;13.10;7.18;;;;;;;;;;8182949;28;20025;-59
2022/03/10 22:12:22;;;;;;;16.13;7.53;;;;;;;;;;8185006;28;20035;-59
2022/03/10 22:16:22;;;;;;;12.27;6.53;;;;;;;;;;8184044;28;20039;-59
2022/03/10 22:20:23;;;;;;;13.20;7.47;;;;;;;;;;8187260;28;20034;-59
2022/03/10 22:24:24;;;;;;;11.48;7.00;;;;;;;;;;8185439;28;20042;-59
2022/03/10 22:28:24;;;;;;;12.27;6.95;;;;;;;;;;8187870;28;20066;-59
2022/03/10 22:32:25;;;;;;;12.20;7.07;;;;;;;;;;8186171;28;20039;-59
2022/03/10 22:36:25;;;;;;;13.18;7.03;;;;;;;;;;8185016;28;20023;-59
2022/03/10 22:40:26;;;;;;;15.82;8.07;;;;;;;;;;8184960;28;20038;-59
2022/03/10 22:44:26;;;;;;;17.53;7.80;;;;;;;;;;8186908;28;20039;-59
2022/03/10 22:48:26;;;;;;;13.68;6.90;;;;;;;;;;8184184;28;20313;-59
2022/03/10 22:56:50;;;;;;;19.38;8.27;;;;;;;;;;8186960;28;20118;-59
2022/03/10 23:00:51;;;;;;;15.35;7.50;;;;;;;;;;8185279;28;20521;-59
2022/03/10 23:09:10;;;;;;;29.38;10.45;;;;;;;;;;8184132;28;20034;-59
2022/03/10 23:13:11;;;;;;;16.27;7.95;;;;;;;;;;8185029;28;20023;-60
2022/03/10 23:17:11;;;;;;;17.52;7.75;;;;;;;;;;8184071;28;20047;-59
2022/03/10 23:21:11;;;;;;;14.60;7.88;;;;;;;;;;8183522;28;20865;-59
2022/03/10 23:25:12;;;;;;;13.55;6.82;;;;;;;;;;8184226;28;20183;-60
2022/03/10 23:29:12;;;;;;;11.70;6.80;;;;;;;;;;8184262;28;20027;-59
2022/03/10 23:33:12;;;;;;;9.25;5.95;;;;;;;;;;8184944;28;20154;-59
2022/03/10 23:37:13;;;;;;;15.73;6.88;;;;;;;;;;8182668;28;20030;-59
2022/03/10 23:41:13;;;;;;;10.95;5.78;;;;;;;;;;8184985;28;20034;-60
2022/03/10 23:45:13;;;;;;;11.02;6.00;;;;;;;;;;8184573;28;20166;-59
2022/03/10 23:49:14;;;;;;;9.57;5.95;;;;;;;;;;8182976;28;20030;-59
2022/03/10 23:53:14;;;;;;;12.18;6.45;;;;;;;;;;8184096;28;20098;-59
2022/03/10 23:57:14;;;;;;;12.13;7.30;;;;;;;;;;8183692;28;20502;-59
